Time;durP1;ratioP1;P1;durP2;ratioP2;P2;SDS_P1;SDS_P2;PMS_P1;PMS_P2;Temp;Humidity;BMP_temperature;BMP_pressure;BME280_temperature;BME280_humidity;BME280_pressure;Samples;Min_cycle;Max_cycle;Signal;HPM_P1;HPM_P2
2023/03/09 00:01:37;;;;;;;27.77;16.87;;;3.00;99.90;;;;;;4977978;28;20080;-81
2023/03/09 00:04:03;;;;;;;27.37;16.10;;;3.00;99.90;;;;;;4996199;28;20027;-81
2023/03/09 00:06:30;;;;;;;27.53;16.10;;;3.00;99.90;;;;;;4978853;28;20030;-81
2023/03/09 00:08:56;;;;;;;24.97;14.80;;;3.00;99.90;;;;;;4978714;28;20026;-81
2023/03/09 00:11:21;;;;;;;27.13;15.93;;;2.90;99.90;;;;;;4978140;28;20053;-81
2023/03/09 00:13:48;;;;;;;27.27;16.03;;;2.90;99.90;;;;;;4978319;28;20053;-81
2023/03/09 00:16:16;;;;;;;27.97;15.83;;;2.90;99.90;;;;;;4994260;28;20126;-81
2023/03/09 00:18:42;;;;;;;25.97;16.03;;;2.90;99.90;;;;;;4979022;28;20061;-81
2023/03/09 00:21:14;;;;;;;25.97;15.60;;;2.90;99.90;;;;;;4976758;28;20475;-81
2023/03/09 00:23:41;;;;;;;29.03;17.57;;;2.90;99.90;;;;;;4993181;28;20085;-81
2023/03/09 00:26:07;;;;;;;27.80;15.57;;;2.90;99.90;;;;;;4976389;28;20065;-80
2023/03/09 00:28:33;;;;;;;26.20;15.53;;;2.90;99.90;;;;;;4993291;28;20050;-80
2023/03/09 00:31:04;;;;;;;28.73;16.53;;;2.90;99.90;;;;;;4993789;28;20485;-81
2023/03/09 00:33:30;;;;;;;30.00;16.83;;;2.90;99.90;;;;;;4995416;28;20058;-81
2023/03/09 00:35:55;;;;;;;27.93;15.40;;;2.80;99.90;;;;;;4978051;28;20477;-81
2023/03/09 00:38:21;;;;;;;30.00;16.90;;;2.90;99.90;;;;;;4995151;28;20042;-81
2023/03/09 00:40:47;;;;;;;31.83;17.83;;;2.90;99.90;;;;;;5010538;28;20061;-81
2023/03/09 00:43:12;;;;;;;29.50;15.70;;;2.80;99.90;;;;;;4995483;28;20027;-81
2023/03/09 00:45:38;;;;;;;30.77;17.40;;;2.80;99.90;;;;;;4977784;28;20041;-80
2023/03/09 00:48:04;;;;;;;31.27;16.90;;;2.80;99.90;;;;;;4993737;28;20027;-81
2023/03/09 00:50:29;;;;;;;30.60;16.30;;;2.80;99.90;;;;;;4994106;28;20033;-81
2023/03/09 00:52:55;;;;;;;30.53;17.43;;;2.70;99.90;;;;;;4977422;28;20022;-81
2023/03/09 00:55:21;;;;;;;33.47;17.97;;;2.70;99.90;;;;;;5009797;28;20089;-81
2023/03/09 00:57:46;;;;;;;35.80;21.03;;;2.70;99.90;;;;;;4992946;28;20084;-81
2023/03/09 01:00:14;;;;;;;35.80;19.33;;;2.70;99.90;;;;;;4993679;28;20030;-81
2023/03/09 01:02:40;;;;;;;38.97;19.57;;;2.70;99.90;;;;;;4993933;28;20022;-81
2023/03/09 01:05:06;;;;;;;38.70;19.87;;;2.70;99.90;;;;;;4995330;28;20085;-80
2023/03/09 01:07:34;;;;;;;38.67;20.53;;;2.70;99.90;;;;;;4995256;28;20504;-81
2023/03/09 01:09:59;;;;;;;35.67;20.50;;;2.80;99.90;;;;;;4979931;28;20035;-82
2023/03/09 01:12:25;;;;;;;36.37;18.90;;;2.70;99.90;;;;;;4995278;28;20077;-81
2023/03/09 01:14:55;;;;;;;33.37;18.40;;;2.80;99.90;;;;;;4994766;28;20062;-81
2023/03/09 01:17:21;;;;;;;29.83;16.60;;;2.70;99.90;;;;;;4993843;28;20494;-81
2023/03/09 01:19:47;;;;;;;33.47;18.50;;;2.70;99.90;;;;;;4993398;28;20030;-81
2023/03/09 01:22:13;;;;;;;30.20;17.23;;;2.80;99.90;;;;;;4994592;28;20026;-81
2023/03/09 01:24:38;;;;;;;32.00;17.63;;;2.70;99.90;;;;;;4993255;28;20601;-81
2023/03/09 01:27:05;;;;;;;31.40;17.30;;;2.70;99.90;;;;;;4994718;28;20030;-82
2023/03/09 01:29:30;;;;;;;34.60;18.90;;;2.70;99.90;;;;;;4981436;28;20178;-82
2023/03/09 01:31:56;;;;;;;34.57;17.83;;;2.80;99.90;;;;;;4957276;28;20070;-81
2023/03/09 01:34:22;;;;;;;30.83;17.30;;;2.70;99.90;;;;;;4957571;28;20502;-81
2023/03/09 01:36:47;;;;;;;32.67;18.10;;;2.80;99.90;;;;;;4974908;28;20049;-82
2023/03/09 01:39:13;;;;;;;32.57;17.33;;;2.90;99.90;;;;;;4973666;28;20387;-81
2023/03/09 01:41:39;;;;;;;31.73;17.27;;;2.90;99.90;;;;;;4957804;28;20027;-81
2023/03/09 01:44:05;;;;;;;32.10;17.60;;;2.90;99.90;;;;;;4973254;28;20109;-81
2023/03/09 01:46:39;;;;;;;28.70;16.17;;;2.90;99.90;;;;;;4957899;28;20462;-82
2023/03/09 01:49:07;;;;;;;;;;;2.90;99.90;;;;;;4973751;28;20019;-82
2023/03/09 01:51:47;;;;;;;34.23;17.97;;;3.00;99.90;;;;;;4957441;28;20401;-82
2023/03/09 01:54:28;;;;;;;32.30;18.47;;;2.90;99.90;;;;;;4973483;28;20033;-82
2023/03/09 01:56:58;;;;;;;34.40;19.10;;;2.90;99.90;;;;;;4974711;28;20561;-82
2023/03/09 01:59:27;;;;;;;34.37;18.80;;;2.90;99.90;;;;;;4957511;28;20023;-82
2023/03/09 02:01:53;;;;;;;33.37;19.20;;;3.00;99.90;;;;;;4972557;28;20050;-81
2023/03/09 02:04:28;;;;;;;32.43;18.60;;;2.90;99.90;;;;;;4974677;28;20074;-82
2023/03/09 02:06:54;;;;;;;29.23;16.80;;;2.90;99.90;;;;;;4972933;28;20031;-81
2023/03/09 02:09:31;;;;;;;32.17;18.27;;;3.00;99.90;;;;;;4974031;28;20055;-82
2023/03/09 02:11:58;;;;;;;30.87;16.33;;;2.90;99.90;;;;;;4973100;28;20038;-82
2023/03/09 02:14:25;;;;;;;32.20;17.97;;;2.90;99.90;;;;;;4974158;28;20031;-81
2023/03/09 02:16:51;;;;;;;32.23;18.03;;;2.90;99.90;;;;;;4972896;28;20130;-82
2023/03/09 02:19:44;;;;;;;33.53;17.23;;;2.90;99.90;;;;;;4972658;28;20089;-81
2023/03/09 02:22:10;;;;;;;34.00;18.23;;;2.90;99.90;;;;;;4972859;28;20037;-81
2023/03/09 02:24:48;;;;;;;32.23;17.70;;;2.90;99.90;;;;;;4973914;28;20515;-81
2023/03/09 02:27:23;;;;;;;31.07;17.80;;;2.90;99.90;;;;;;4974230;28;20364;-81
2023/03/09 02:29:49;;;;;;;32.87;17.53;;;2.90;99.90;;;;;;4986311;28;20050;-81
2023/03/09 02:32:15;;;;;;;33.23;18.57;;;2.90;99.90;;;;;;4992470;28;20402;-81
2023/03/09 02:34:41;;;;;;;35.80;18.47;;;2.80;99.90;;;;;;4992513;28;20034;-81
2023/03/09 02:37:21;;;;;;;35.37;20.23;;;2.80;99.90;;;;;;4976063;28;20042;-81
2023/03/09 02:39:50;;;;;;;35.27;19.37;;;2.70;99.90;;;;;;4992152;28;20030;-81
2023/03/09 02:42:17;;;;;;;33.83;18.27;;;2.80;99.90;;;;;;4993401;28;20498;-81
2023/03/09 02:44:43;;;;;;;36.67;18.23;;;2.80;99.90;;;;;;4975645;28;20113;-81
2023/03/09 02:47:18;;;;;;;34.97;18.77;;;2.80;99.90;;;;;;4992692;28;20125;-81
2023/03/09 02:49:43;;;;;;;35.27;18.17;;;2.80;99.90;;;;;;4976140;28;20093;-80
2023/03/09 02:52:09;;;;;;;34.93;18.17;;;2.80;99.90;;;;;;4975921;28;20030;-81
2023/03/09 02:54:35;;;;;;;35.77;18.73;;;2.80;99.90;;;;;;5008537;28;20065;-83
2023/03/09 02:57:00;;;;;;;32.70;17.27;;;2.80;99.90;;;;;;4991645;28;20070;-80
2023/03/09 02:59:26;;;;;;;35.57;18.53;;;2.90;99.90;;;;;;4992203;28;20030;-80
2023/03/09 03:01:52;;;;;;;32.10;17.80;;;2.80;99.90;;;;;;4991674;28;20030;-81
2023/03/09 03:04:17;;;;;;;35.57;19.80;;;2.80;99.90;;;;;;5008252;28;20058;-80
2023/03/09 03:06:43;;;;;;;31.47;17.60;;;2.80;99.90;;;;;;4992080;28;20100;-80
2023/03/09 03:09:08;;;;;;;32.40;18.33;;;2.90;99.90;;;;;;5008531;28;20151;-82
2023/03/09 03:11:34;;;;;;;33.17;18.03;;;2.80;99.90;;;;;;4992075;28;20074;-83
2023/03/09 03:14:00;;;;;;;36.47;18.23;;;2.90;99.90;;;;;;4975719;28;20027;-82
2023/03/09 03:16:25;;;;;;;37.17;20.03;;;2.90;99.90;;;;;;4993208;28;20422;-80
2023/03/09 03:18:51;;;;;;;34.80;18.17;;;2.90;99.90;;;;;;4975660;28;20130;-81
2023/03/09 03:21:17;;;;;;;36.87;19.13;;;2.90;99.90;;;;;;4994737;28;20497;-81
2023/03/09 03:23:43;;;;;;;34.50;17.67;;;2.90;99.90;;;;;;5012090;28;20090;-82
2023/03/09 03:26:10;;;;;;;33.43;18.70;;;2.90;99.90;;;;;;4995324;28;20030;-81
2023/03/09 03:28:35;;;;;;;34.20;18.43;;;2.90;99.90;;;;;;4996306;28;20364;-82
2023/03/09 03:31:02;;;;;;;33.97;18.77;;;2.90;99.90;;;;;;4995409;28;20081;-81
2023/03/09 03:33:28;;;;;;;33.43;17.73;;;3.00;99.90;;;;;;4995441;28;20061;-81
2023/03/09 03:35:54;;;;;;;31.70;17.83;;;2.90;99.90;;;;;;5011453;28;20496;-81
2023/03/09 03:38:20;;;;;;;33.53;18.23;;;3.00;99.90;;;;;;4995289;28;20515;-81
2023/03/09 03:40:45;;;;;;;33.00;18.50;;;2.90;99.90;;;;;;4995178;28;20039;-83
2023/03/09 03:43:11;;;;;;;30.97;17.03;;;2.90;99.90;;;;;;4978755;28;20031;-80
2023/03/09 03:45:37;;;;;;;33.90;18.13;;;2.90;99.90;;;;;;4995669;28;20034;-83
2023/03/09 03:48:02;;;;;;;31.80;17.30;;;3.00;99.90;;;;;;4978974;28;20077;-82
2023/03/09 03:50:28;;;;;;;28.63;15.63;;;2.90;99.90;;;;;;4994928;28;20093;-82
2023/03/09 03:52:54;;;;;;;31.77;16.97;;;2.90;99.90;;;;;;4979031;28;20026;-82
2023/03/09 03:55:19;;;;;;;29.87;16.87;;;2.90;99.90;;;;;;4978623;28;20078;-81
2023/03/09 03:57:45;;;;;;;26.50;15.47;;;2.90;99.90;;;;;;4995026;28;20554;-82
2023/03/09 04:00:11;;;;;;;30.80;16.10;;;2.90;99.90;;;;;;4995437;28;20030;-81
2023/03/09 04:02:38;;;;;;;31.87;17.00;;;2.90;99.90;;;;;;4996838;28;20056;-81
2023/03/09 04:05:04;;;;;;;29.30;17.03;;;2.90;99.90;;;;;;5011215;28;20026;-82
2023/03/09 04:07:30;;;;;;;30.43;17.30;;;2.90;99.90;;;;;;4978562;28;20034;-82
2023/03/09 04:09:56;;;;;;;31.53;16.63;;;2.90;99.90;;;;;;4994312;28;20490;-82
2023/03/09 04:12:21;;;;;;;30.93;17.23;;;2.90;99.90;;;;;;5010857;28;20041;-81
2023/03/09 04:14:47;;;;;;;33.23;17.23;;;3.00;99.90;;;;;;4994739;28;20026;-81
2023/03/09 04:17:12;;;;;;;31.10;17.20;;;2.90;99.90;;;;;;4994369;28;20046;-82
2023/03/09 04:19:39;;;;;;;33.17;18.63;;;2.90;99.90;;;;;;5010487;28;20431;-82
2023/03/09 04:22:06;;;;;;;33.17;16.83;;;2.90;99.90;;;;;;5010750;28;20030;-82
2023/03/09 04:24:32;;;;;;;32.67;17.30;;;2.90;99.90;;;;;;4994484;28;20030;-82
2023/03/09 04:26:58;;;;;;;33.80;17.77;;;2.90;99.90;;;;;;4977994;28;20041;-82
2023/03/09 04:29:24;;;;;;;31.23;16.60;;;2.90;99.90;;;;;;4974547;28;20076;-82
2023/03/09 04:31:50;;;;;;;32.30;17.20;;;2.90;99.90;;;;;;4974030;28;20031;-82
2023/03/09 04:34:15;;;;;;;31.77;17.40;;;2.90;99.90;;;;;;4958580;28;20034;-81
2023/03/09 04:36:41;;;;;;;32.97;18.57;;;2.90;99.90;;;;;;4974788;28;20495;-82
2023/03/09 04:39:06;;;;;;;35.20;18.43;;;2.90;99.90;;;;;;4958199;28;20034;-81
2023/03/09 04:41:32;;;;;;;32.00;17.33;;;2.90;99.90;;;;;;4958799;28;20058;-81
2023/03/09 04:43:58;;;;;;;36.30;18.90;;;3.00;99.90;;;;;;4958434;28;20031;-82
2023/03/09 04:46:24;;;;;;;36.70;19.37;;;3.00;99.90;;;;;;4958625;28;20348;-82
2023/03/09 04:48:50;;;;;;;37.17;18.60;;;2.90;99.90;;;;;;4958377;28;20348;-81
2023/03/09 04:51:15;;;;;;;36.30;19.97;;;3.00;99.90;;;;;;4958567;28;20038;-81
2023/03/09 04:53:41;;;;;;;35.73;18.40;;;2.90;99.90;;;;;;4974374;28;20041;-81
2023/03/09 04:56:07;;;;;;;33.60;18.03;;;2.90;99.90;;;;;;4974639;28;20034;-82
2023/03/09 04:58:33;;;;;;;34.70;17.83;;;2.90;99.90;;;;;;4957957;28;20041;-81
2023/03/09 05:01:00;;;;;;;36.97;18.63;;;3.10;99.90;;;;;;4974001;28;20117;-82
2023/03/09 05:03:27;;;;;;;37.27;18.77;;;3.00;99.90;;;;;;4958115;28;20079;-82
2023/03/09 05:05:52;;;;;;;35.03;17.93;;;3.00;99.90;;;;;;4974416;28;20049;-82
2023/03/09 05:08:18;;;;;;;37.23;19.27;;;3.00;99.90;;;;;;4957943;28;20483;-81
2023/03/09 05:10:44;;;;;;;36.60;19.97;;;3.00;99.90;;;;;;4957918;28;20033;-82
2023/03/09 05:13:09;;;;;;;35.77;18.27;;;3.00;99.90;;;;;;4958055;28;20065;-82
2023/03/09 05:15:38;;;;;;;31.73;17.17;;;3.00;99.90;;;;;;4958202;28;20062;-83
2023/03/09 05:18:04;;;;;;;35.03;18.83;;;3.00;99.90;;;;;;4975252;28;20038;-82
2023/03/09 05:20:30;;;;;;;37.03;17.60;;;3.00;99.90;;;;;;4973708;28;20487;-82
2023/03/09 05:22:56;;;;;;;36.70;19.07;;;3.00;99.90;;;;;;4957907;28;20033;-82
2023/03/09 05:25:25;;;;;;;33.30;16.57;;;3.00;99.90;;;;;;4957932;28;20089;-82
2023/03/09 05:27:51;;;;;;;33.37;18.37;;;3.10;99.90;;;;;;4973948;28;20026;-82
2023/03/09 05:30:18;;;;;;;34.87;18.47;;;3.00;99.90;;;;;;4992432;28;20057;-82
2023/03/09 05:32:45;;;;;;;36.90;18.47;;;3.00;99.90;;;;;;4992925;28;20437;-82
2023/03/09 05:35:10;;;;;;;34.03;18.50;;;3.00;99.90;;;;;;4993133;28;20516;-82
2023/03/09 05:37:36;;;;;;;36.63;19.97;;;3.00;99.90;;;;;;4992952;28;20079;-81
2023/03/09 05:40:04;;;;;;;36.17;17.60;;;3.10;99.90;;;;;;4994322;28;20030;-82
2023/03/09 05:42:31;;;;;;;35.03;17.57;;;3.00;99.90;;;;;;4976270;28;20026;-82
2023/03/09 05:44:57;;;;;;;38.07;18.50;;;3.00;99.90;;;;;;4994088;28;20026;-83
2023/03/09 05:47:22;;;;;;;36.27;18.30;;;3.00;99.90;;;;;;4993001;28;20023;-82
2023/03/09 05:49:49;;;;;;;33.20;17.50;;;3.10;99.90;;;;;;4992821;28;20094;-82
2023/03/09 05:52:15;;;;;;;31.60;17.37;;;3.00;99.90;;;;;;4994315;28;20058;-83
2023/03/09 05:54:41;;;;;;;36.53;18.60;;;3.10;99.90;;;;;;4993471;28;20051;-82
2023/03/09 05:57:06;;;;;;;34.10;17.40;;;3.10;99.90;;;;;;4994194;28;20042;-82
2023/03/09 05:59:32;;;;;;;37.50;20.43;;;3.10;99.90;;;;;;4992392;28;20085;-82
2023/03/09 06:01:58;;;;;;;39.93;20.23;;;3.10;99.90;;;;;;4976303;28;20058;-82
2023/03/09 06:04:23;;;;;;;35.57;19.07;;;3.10;99.90;;;;;;4976587;28;20034;-82
2023/03/09 06:06:49;;;;;;;35.60;19.00;;;3.10;99.90;;;;;;4976436;28;20141;-80
2023/03/09 06:09:14;;;;;;;37.67;19.47;;;3.10;99.90;;;;;;4976484;28;20026;-82
2023/03/09 06:11:40;;;;;;;36.00;19.67;;;3.20;99.90;;;;;;4976161;28;20041;-82
2023/03/09 06:14:06;;;;;;;33.10;17.60;;;3.10;99.90;;;;;;4980355;28;20065;-82
2023/03/09 06:16:31;;;;;;;33.43;18.33;;;3.10;99.90;;;;;;4974898;28;20369;-82
2023/03/09 06:18:57;;;;;;;34.57;18.80;;;3.10;99.90;;;;;;4993515;28;20033;-82
2023/03/09 06:21:23;;;;;;;35.80;17.77;;;3.00;99.90;;;;;;4995025;28;20034;-82
2023/03/09 06:23:48;;;;;;;32.23;17.00;;;3.10;99.90;;;;;;4994656;28;20026;-82
2023/03/09 06:26:14;;;;;;;34.50;19.13;;;3.10;99.90;;;;;;4995469;28;20037;-82
2023/03/09 06:28:40;;;;;;;34.80;17.27;;;3.20;99.90;;;;;;4994503;28;20185;-82
2023/03/09 06:31:11;;;;;;;34.30;18.30;;;3.20;99.90;;;;;;4994814;28;20377;-82
2023/03/09 06:33:37;;;;;;;36.23;19.43;;;3.20;99.90;;;;;;4994895;28;20030;-82
2023/03/09 06:36:03;;;;;;;36.03;19.47;;;3.20;99.90;;;;;;4976430;28;20086;-82
2023/03/09 06:38:29;;;;;;;35.47;18.40;;;3.20;99.90;;;;;;5012460;28;20482;-82
2023/03/09 06:40:55;;;;;;;34.10;17.43;;;3.20;99.90;;;;;;5013009;28;20033;-82
2023/03/09 06:43:21;;;;;;;31.83;18.20;;;3.20;99.90;;;;;;4977961;28;20018;-82
2023/03/09 06:45:47;;;;;;;31.57;16.90;;;3.30;99.90;;;;;;4995608;28;20025;-82
2023/03/09 06:48:14;;;;;;;32.57;17.07;;;3.30;99.90;;;;;;4987977;28;20030;-82
2023/03/09 06:50:39;;;;;;;29.73;16.27;;;3.30;99.90;;;;;;4980441;28;20394;-81
2023/03/09 06:53:05;;;;;;;31.37;17.20;;;3.40;99.90;;;;;;5003550;28;20033;-82
2023/03/09 06:55:31;;;;;;;31.83;16.97;;;3.30;99.90;;;;;;5008553;28;20061;-81
2023/03/09 06:57:57;;;;;;;30.43;16.37;;;3.30;99.90;;;;;;4979011;28;20582;-82
2023/03/09 07:00:22;;;;;;;33.00;17.23;;;3.40;99.90;;;;;;4995823;28;20378;-81
2023/03/09 07:02:48;;;;;;;31.90;17.03;;;3.40;99.90;;;;;;5005319;28;20038;-81
2023/03/09 07:05:14;;;;;;;30.43;15.73;;;3.40;99.90;;;;;;4997897;28;20030;-82
2023/03/09 07:07:42;;;;;;;30.60;17.27;;;3.40;99.90;;;;;;4981483;28;20033;-81
2023/03/09 07:10:10;;;;;;;28.50;14.80;;;3.40;99.90;;;;;;5015692;28;20030;-81
2023/03/09 07:12:35;;;;;;;32.97;17.30;;;3.40;99.90;;;;;;4981390;28;20030;-82
2023/03/09 07:15:01;;;;;;;33.10;17.80;;;3.50;99.90;;;;;;5015201;28;20489;-82
2023/03/09 07:17:27;;;;;;;32.13;16.80;;;3.50;99.90;;;;;;4997838;28;20041;-82
2023/03/09 07:19:52;;;;;;;34.07;17.80;;;3.40;99.90;;;;;;4998665;28;20025;-82
2023/03/09 07:22:18;;;;;;;30.47;15.67;;;3.50;99.90;;;;;;4998813;28;20022;-82
2023/03/09 07:24:44;;;;;;;29.97;16.93;;;3.40;99.90;;;;;;4998596;28;20065;-82
2023/03/09 07:27:09;;;;;;;28.20;15.50;;;3.50;99.90;;;;;;4998322;28;20038;-82
2023/03/09 07:29:35;;;;;;;29.83;16.03;;;3.50;99.90;;;;;;4966525;28;20046;-82
2023/03/09 07:32:02;;;;;;;31.43;16.80;;;3.40;99.90;;;;;;4998019;28;20026;-81
2023/03/09 07:34:28;;;;;;;29.30;16.33;;;3.60;99.90;;;;;;5014888;28;20036;-81
2023/03/09 07:36:54;;;;;;;28.80;16.17;;;3.60;99.90;;;;;;4982481;28;20132;-82
2023/03/09 07:39:19;;;;;;;31.00;17.07;;;3.60;99.90;;;;;;4998772;28;20427;-81
2023/03/09 07:41:45;;;;;;;31.50;17.07;;;3.70;99.90;;;;;;5016044;28;20026;-81
2023/03/09 07:44:11;;;;;;;35.13;17.20;;;3.70;99.90;;;;;;4966252;28;20169;-82
2023/03/09 07:46:36;;;;;;;28.33;15.80;;;3.70;99.90;;;;;;4998552;28;20021;-82
2023/03/09 07:49:02;;;;;;;30.20;16.40;;;3.70;99.90;;;;;;5015593;28;20079;-82
2023/03/09 07:51:29;;;;;;;28.57;15.87;;;3.80;99.90;;;;;;4982392;28;20188;-82
2023/03/09 07:53:55;;;;;;;32.93;16.93;;;3.80;99.90;;;;;;4998406;28;20030;-82
2023/03/09 07:56:20;;;;;;;28.70;16.33;;;3.80;99.90;;;;;;4998032;28;20454;-82
2023/03/09 07:58:46;;;;;;;28.67;16.53;;;3.90;99.90;;;;;;4998394;28;20128;-82
2023/03/09 08:01:15;;;;;;;28.80;15.70;;;3.90;99.90;;;;;;4998220;28;20054;-82
2023/03/09 08:03:41;;;;;;;30.00;16.47;;;3.90;99.90;;;;;;5016034;28;20105;-82
2023/03/09 08:06:07;;;;;;;29.73;15.60;;;4.00;99.90;;;;;;4997632;28;20030;-82
2023/03/09 08:08:33;;;;;;;31.07;16.47;;;4.00;99.90;;;;;;4998043;28;20417;-82
2023/03/09 08:10:59;;;;;;;31.53;17.93;;;4.00;99.90;;;;;;5015715;28;20026;-82
2023/03/09 08:13:24;;;;;;;31.03;17.10;;;4.10;99.90;;;;;;4997755;28;20034;-82
2023/03/09 08:15:51;;;;;;;30.77;16.23;;;4.10;99.90;;;;;;4997726;28;20489;-82
2023/03/09 08:18:18;;;;;;;30.00;16.47;;;4.20;99.90;;;;;;4997719;28;20038;-82
2023/03/09 08:20:44;;;;;;;32.17;17.33;;;4.20;99.90;;;;;;4997775;28;20065;-82
2023/03/09 08:23:10;;;;;;;31.10;17.17;;;4.20;99.90;;;;;;5014963;28;20033;-82
2023/03/09 08:25:36;;;;;;;33.50;18.43;;;4.20;99.90;;;;;;5015283;28;20026;-82
2023/03/09 08:28:03;;;;;;;31.00;17.73;;;4.20;99.90;;;;;;4981931;28;20029;-82
2023/03/09 08:30:30;;;;;;;31.03;17.10;;;4.30;99.90;;;;;;5015349;28;20085;-82
2023/03/09 08:32:57;;;;;;;30.27;16.37;;;4.30;99.90;;;;;;4981710;28;20030;-82
2023/03/09 08:35:28;;;;;;;27.90;15.93;;;4.30;99.90;;;;;;5015317;28;20040;-81
2023/03/09 08:37:54;;;;;;;31.57;18.00;;;4.40;99.90;;;;;;5014788;28;20038;-81
2023/03/09 08:40:20;;;;;;;29.93;17.03;;;4.50;99.90;;;;;;4981562;28;20041;-80
2023/03/09 08:42:46;;;;;;;32.00;18.00;;;4.50;99.90;;;;;;4981032;28;20541;-82
2023/03/09 08:45:12;;;;;;;31.23;16.53;;;4.50;99.90;;;;;;4997163;28;20393;-82
2023/03/09 08:47:38;;;;;;;30.80;17.13;;;4.50;99.90;;;;;;4997558;28;20404;-81
2023/03/09 08:50:05;;;;;;;31.57;18.17;;;4.60;99.90;;;;;;4997122;28;20117;-81
2023/03/09 08:52:36;;;;;;;28.70;16.00;;;4.70;99.90;;;;;;4996978;28;20057;-81
2023/03/09 08:55:03;;;;;;;29.93;17.83;;;4.70;99.90;;;;;;4981639;28;20088;-81
2023/03/09 08:57:29;;;;;;;30.77;16.83;;;4.70;99.90;;;;;;4996856;28;20042;-82
2023/03/09 08:59:54;;;;;;;34.70;18.77;;;4.80;99.90;;;;;;4996695;28;20072;-81
2023/03/09 09:02:20;;;;;;;32.50;18.13;;;4.90;99.90;;;;;;4997172;28;20022;-80
2023/03/09 09:04:46;;;;;;;31.90;18.10;;;5.00;99.90;;;;;;4996779;28;20037;-81
2023/03/09 09:07:14;;;;;;;32.00;17.63;;;5.00;99.90;;;;;;4980747;28;20038;-81
2023/03/09 09:09:40;;;;;;;33.33;18.80;;;5.00;99.90;;;;;;4996917;28;20460;-81
2023/03/09 09:12:07;;;;;;;30.50;18.23;;;5.00;99.90;;;;;;4997280;28;20049;-81
2023/03/09 09:14:33;;;;;;;31.00;18.33;;;5.00;99.90;;;;;;4997104;28;20030;-81
2023/03/09 09:16:59;;;;;;;29.93;17.27;;;5.00;99.90;;;;;;4980377;28;20049;-81
2023/03/09 09:19:25;;;;;;;29.47;17.57;;;5.10;99.90;;;;;;4980431;28;20030;-81
2023/03/09 09:21:52;;;;;;;31.67;18.27;;;5.10;99.90;;;;;;4966240;28;20029;-83
2023/03/09 09:24:18;;;;;;;26.90;15.27;;;5.20;99.90;;;;;;5001390;28;20026;-82
2023/03/09 09:26:44;;;;;;;30.27;17.40;;;5.20;99.90;;;;;;4998668;28;20489;-82
2023/03/09 09:29:11;;;;;;;32.40;18.87;;;5.20;99.90;;;;;;4980535;28;20493;-80
2023/03/09 09:31:38;;;;;;;32.70;18.33;;;5.20;99.90;;;;;;4996474;28;20041;-80
2023/03/09 09:34:04;;;;;;;30.00;17.70;;;5.30;99.90;;;;;;4980399;28;20060;-80
2023/03/09 09:36:29;;;;;;;32.07;18.40;;;5.30;99.90;;;;;;4980599;28;20390;-80
2023/03/09 09:38:55;;;;;;;30.27;17.30;;;5.40;99.90;;;;;;5016427;28;20117;-80
2023/03/09 09:41:39;;;;;;;29.90;16.67;;;5.40;99.90;;;;;;4998736;28;20544;-80
2023/03/09 09:44:10;;;;;;;31.13;17.58;;;5.50;99.90;;;;;;4996259;28;20406;-80
2023/03/09 09:46:36;;;;;;;32.50;17.43;;;5.50;99.90;;;;;;4995993;28;20077;-80
2023/03/09 09:49:03;;;;;;;30.07;17.77;;;5.40;99.90;;;;;;4996477;28;20037;-80
2023/03/09 09:51:47;;;;;;;31.77;18.53;;;5.50;99.90;;;;;;4996433;28;20037;-80
2023/03/09 09:54:22;;;;;;;;;;;5.50;99.90;;;;;;4996440;28;20036;-80
2023/03/09 09:56:52;;;;;;;31.88;16.98;;;5.50;99.90;;;;;;5013527;28;20362;-80
2023/03/09 09:59:30;;;;;;;35.13;18.83;;;5.50;99.90;;;;;;4996043;28;20030;-80
2023/03/09 10:02:21;;;;;;;31.57;18.70;;;5.50;99.80;;;;;;4995478;28;20060;-80
2023/03/09 10:05:19;;;;;;;33.30;18.47;;;5.50;99.70;;;;;;4988095;28;20470;-80
2023/03/09 10:07:47;;;;;;;30.13;16.67;;;5.50;99.80;;;;;;4995800;28;20038;-80
2023/03/09 10:10:24;;;;;;;32.53;18.07;;;5.60;99.90;;;;;;4963843;28;20421;-80
2023/03/09 10:12:50;;;;;;;34.20;18.97;;;5.60;99.90;;;;;;5013290;28;20034;-79
2023/03/09 10:15:26;;;;;;;33.33;18.60;;;5.70;99.90;;;;;;4963936;28;20032;-80
2023/03/09 10:18:03;;;;;;;34.80;19.80;;;5.70;99.90;;;;;;4995577;28;20033;-82
2023/03/09 10:20:46;;;;;;;39.20;19.03;;;5.80;99.60;;;;;;5013702;28;20022;-80
2023/03/09 10:23:34;;;;;;;33.47;19.47;;;5.80;99.40;;;;;;5013765;28;20382;-79
2023/03/09 10:26:05;;;;;;;34.20;19.83;;;5.80;99.30;;;;;;4994826;28;20096;-80
2023/03/09 10:28:40;;;;;;;34.73;19.17;;;5.80;99.20;;;;;;4995265;28;20417;-80
2023/03/09 10:31:16;;;;;;;33.23;18.60;;;5.80;99.20;;;;;;4995454;28;20439;-81
2023/03/09 10:34:10;;;;;;;34.27;19.63;;;5.90;99.20;;;;;;5013214;28;20026;-80
2023/03/09 10:36:41;;;;;;;23.38;12.52;;;5.90;99.10;;;;;;4995268;28;20033;-80
2023/03/09 10:39:14;;;;;;;32.67;17.87;;;5.90;98.90;;;;;;4995530;28;20045;-80
2023/03/09 10:41:40;;;;;;;32.40;18.33;;;5.90;98.70;;;;;;4995764;28;20470;-80
2023/03/09 10:44:06;;;;;;;33.87;18.87;;;5.90;98.50;;;;;;4979662;28;20116;-80
2023/03/09 10:46:55;;;;;;;35.37;19.17;;;5.90;98.40;;;;;;5013035;28;20451;-80
2023/03/09 10:49:20;;;;;;;33.97;18.40;;;5.80;98.60;;;;;;4995073;28;20121;-80
2023/03/09 10:52:03;;;;;;;32.03;17.87;;;5.80;98.30;;;;;;4979266;28;20165;-80
2023/03/09 10:54:40;;;;;;;29.60;16.70;;;5.80;98.40;;;;;;4995530;28;20116;-80
2023/03/09 10:57:24;;;;;;;33.90;19.10;;;5.90;98.40;;;;;;4995225;28;20034;-80
2023/03/09 11:00:11;;;;;;;29.93;17.43;;;5.80;98.40;;;;;;4995107;28;20026;-80
2023/03/09 11:02:37;;;;;;;32.03;17.50;;;5.90;98.40;;;;;;5012658;28;20512;-80
2023/03/09 11:05:29;;;;;;;35.10;19.17;;;5.90;98.30;;;;;;4979464;28;20026;-80
2023/03/09 11:07:57;;;;;;;34.13;18.93;;;5.90;98.10;;;;;;5012684;28;20037;-80
2023/03/09 11:10:26;;;;;;;32.20;18.63;;;6.10;98.10;;;;;;4995267;28;20018;-80
2023/03/09 11:12:52;;;;;;;33.33;17.60;;;6.00;98.00;;;;;;4995527;28;20121;-80
2023/03/09 11:15:18;;;;;;;31.77;18.33;;;6.00;97.90;;;;;;4995341;28;20060;-80
2023/03/09 11:17:46;;;;;;;34.43;18.67;;;6.00;97.90;;;;;;5012863;28;20490;-80
2023/03/09 11:20:12;;;;;;;33.97;18.90;;;6.00;97.80;;;;;;5012528;28;20557;-81
2023/03/09 11:23:05;;;;;;;31.50;18.17;;;6.00;97.80;;;;;;5012682;28;20121;-80
2023/03/09 11:25:53;;;;;;;32.47;18.23;;;6.00;97.70;;;;;;4987833;28;20126;-80
2023/03/09 11:28:28;;;;;;;33.07;18.33;;;6.00;97.50;;;;;;4994836;28;20033;-80
2023/03/09 11:30:56;;;;;;;26.60;15.60;;;6.00;97.60;;;;;;4994610;28;20021;-81
2023/03/09 11:33:24;;;;;;;33.30;18.77;;;6.10;97.60;;;;;;5012316;28;20456;-80
2023/03/09 11:35:54;;;;;;;34.70;18.80;;;6.10;97.50;;;;;;4995087;28;20036;-80
2023/03/09 11:38:21;;;;;;;30.03;16.70;;;6.10;97.40;;;;;;4995024;28;20691;-81
2023/03/09 11:40:59;;;;;;;31.87;18.30;;;6.10;97.30;;;;;;4995684;28;20033;-80
2023/03/09 11:43:32;;;;;;;32.80;17.47;;;6.10;97.30;;;;;;5016106;28;20386;-81
2023/03/09 11:46:01;;;;;;;30.92;17.85;;;6.20;97.20;;;;;;5015913;28;20026;-80
2023/03/09 11:48:38;;;;;;;33.03;18.67;;;6.20;97.20;;;;;;5015783;28;20478;-81
2023/03/09 11:51:12;;;;;;;32.27;18.50;;;6.20;97.20;;;;;;5015850;28;20053;-80
2023/03/09 11:53:49;;;;;;;31.77;17.30;;;6.20;97.20;;;;;;5015552;28;20537;-80
2023/03/09 11:56:43;;;;;;;29.70;16.20;;;6.20;97.20;;;;;;5016139;28;20025;-81
2023/03/09 11:59:16;;;;;;;31.30;17.50;;;6.20;97.10;;;;;;4996910;28;20113;-80
2023/03/09 12:02:02;;;;;;;31.00;16.90;;;6.20;97.10;;;;;;4998019;28;20335;-81
2023/03/09 12:04:28;;;;;;;31.07;17.03;;;6.20;97.10;;;;;;5015562;28;20036;-80
2023/03/09 12:07:05;;;;;;;32.63;17.67;;;6.20;97.10;;;;;;4981707;28;20389;-80
2023/03/09 12:09:34;;;;;;;34.10;17.37;;;6.20;97.10;;;;;;5015753;28;20058;-81
2023/03/09 12:12:11;;;;;;;32.77;17.63;;;6.20;97.10;;;;;;5015638;28;20470;-80
2023/03/09 12:14:44;;;;;;;32.97;18.00;;;6.20;97.10;;;;;;4997951;28;20132;-81
2023/03/09 12:17:19;;;;;;;32.37;17.73;;;6.20;97.10;;;;;;4998011;28;20069;-80
2023/03/09 12:19:52;;;;;;;31.43;17.43;;;6.20;96.90;;;;;;5017386;28;20044;-79
2023/03/09 12:22:29;;;;;;;33.75;18.52;;;6.10;96.70;;;;;;5003769;28;20042;-81
2023/03/09 12:24:59;;;;;;;36.13;19.77;;;6.10;96.70;;;;;;5021220;28;20022;-80
2023/03/09 12:27:26;;;;;;;33.20;18.43;;;6.10;96.70;;;;;;5016136;28;20105;-81
2023/03/09 12:30:06;;;;;;;34.10;19.37;;;6.00;96.70;;;;;;4967252;28;20198;-80
2023/03/09 12:32:39;;;;;;;35.77;17.53;;;6.00;96.70;;;;;;4978548;28;20025;-81
2023/03/09 12:35:12;;;;;;;25.33;12.63;;;5.90;96.70;;;;;;4978234;28;20065;-80
2023/03/09 12:37:54;;;;;;;31.80;17.23;;;5.90;96.80;;;;;;4977778;28;20514;-80
2023/03/09 12:40:31;;;;;;;31.20;16.57;;;5.90;96.90;;;;;;4978271;28;20146;-81
2023/03/09 12:43:18;;;;;;;30.00;16.13;;;5.90;96.80;;;;;;4995049;28;20027;-81
2023/03/09 12:45:46;;;;;;;31.47;16.83;;;5.90;96.70;;;;;;4939692;28;20474;-81